createdAt,value
2019-02-28T00:02:41.543Z,1.30
2019-02-28T00:05:45.867Z,1.87
2019-02-28T00:08:51.073Z,1.70
2019-02-28T00:11:59.914Z,1.30
2019-02-28T00:15:04.369Z,1.63
2019-02-28T00:18:09.066Z,1.77
2019-02-28T00:21:13.590Z,1.10
2019-02-28T00:24:17.947Z,3.10
2019-02-28T00:27:22.743Z,1.47
2019-02-28T00:30:27.087Z,1.70
2019-02-28T00:33:31.860Z,1.90
2019-02-28T00:36:36.262Z,2.00
2019-02-28T00:39:40.524Z,1.10
2019-02-28T00:42:45.178Z,2.33
2019-02-28T00:45:49.904Z,1.73
2019-02-28T00:48:54.231Z,1.50
2019-02-28T00:52:01.606Z,1.60
2019-02-28T00:55:04.829Z,1.53
2019-02-28T00:58:09.502Z,1.90
2019-02-28T01:01:13.822Z,1.80
2019-02-28T01:04:18.229Z,1.80
2019-02-28T01:07:22.551Z,2.10
2019-02-28T01:10:26.898Z,1.30
2019-02-28T01:13:31.572Z,1.77
2019-02-28T01:16:35.875Z,2.00
2019-02-28T01:19:41.330Z,1.87
2019-02-28T01:22:46.251Z,1.70
2019-02-28T01:25:50.920Z,2.10
2019-02-28T01:28:55.295Z,1.60
2019-02-28T01:31:59.632Z,1.40
2019-02-28T01:35:06.797Z,1.63
2019-02-28T01:38:11.369Z,1.73
2019-02-28T01:41:16.011Z,2.40
2019-02-28T01:44:20.757Z,2.30
2019-02-28T01:47:25.702Z,1.37
2019-02-28T01:50:30.457Z,2.07
2019-02-28T01:53:34.979Z,2.10
2019-02-28T01:56:39.604Z,2.10
2019-02-28T01:59:43.871Z,3.17
2019-02-28T02:02:48.581Z,1.87
2019-02-28T02:05:52.964Z,3.53
2019-02-28T02:08:57.327Z,2.50
2019-02-28T02:12:01.702Z,2.67
2019-02-28T02:15:08.383Z,2.10
2019-02-28T02:18:12.790Z,2.07
2019-02-28T02:21:17.168Z,3.27
2019-02-28T02:24:24.387Z,2.80
2019-02-28T02:27:28.243Z,3.57
2019-02-28T02:30:32.501Z,2.87
2019-02-28T02:33:37.221Z,2.03
2019-02-28T02:36:41.962Z,3.67
2019-02-28T02:39:50.226Z,3.07
2019-02-28T02:42:52.321Z,2.20
2019-02-28T02:45:56.657Z,2.83
2019-02-28T02:49:01.217Z,2.10
2019-02-28T02:52:05.603Z,4.03
2019-02-28T02:55:09.985Z,2.63
2019-02-28T02:58:14.309Z,3.33
2019-02-28T03:01:23.049Z,2.13
2019-02-28T03:04:24.722Z,3.07
2019-02-28T03:07:29.040Z,2.50
2019-02-28T03:10:33.642Z,2.17
2019-02-28T03:13:43.755Z,2.40
2019-02-28T03:16:44.833Z,2.70
2019-02-28T03:19:49.492Z,2.80
2019-02-28T03:22:56.595Z,3.00
2019-02-28T03:26:05.751Z,2.80
2019-02-28T03:29:08.058Z,2.83
2019-02-28T03:32:13.860Z,2.73
2019-02-28T03:35:18.350Z,3.30
2019-02-28T03:38:22.723Z,2.60
2019-02-28T03:41:27.257Z,3.10
2019-02-28T03:44:31.625Z,2.67
2019-02-28T03:47:37.145Z,2.70
2019-02-28T03:50:41.468Z,2.93
2019-02-28T03:53:46.140Z,2.90
2019-02-28T03:56:52.806Z,2.77
2019-02-28T03:59:57.045Z,2.93
2019-02-28T04:03:01.538Z,3.93
2019-02-28T04:06:05.951Z,2.97
2019-02-28T04:09:10.386Z,3.63
2019-02-28T04:12:14.771Z,3.13
2019-02-28T04:15:19.475Z,3.10
2019-02-28T04:18:24.195Z,3.33
2019-02-28T04:21:28.869Z,3.00
2019-02-28T04:24:33.192Z,3.77
2019-02-28T04:27:40.514Z,2.27
2019-02-28T04:30:44.063Z,3.03
2019-02-28T04:33:48.527Z,3.63
2019-02-28T04:36:53.227Z,2.77
2019-02-28T04:39:57.508Z,3.37
2019-02-28T04:43:01.821Z,3.93
2019-02-28T04:46:06.196Z,2.87
2019-02-28T04:49:10.507Z,3.93
2019-02-28T04:52:14.847Z,3.37
2019-02-28T04:55:19.262Z,3.27
2019-02-28T04:58:25.264Z,3.00
2019-02-28T05:01:30.873Z,3.87
2019-02-28T05:04:36.142Z,2.57
2019-02-28T05:07:41.079Z,3.50
2019-02-28T05:10:45.457Z,3.73
2019-02-28T05:13:49.734Z,3.93
2019-02-28T05:16:54.134Z,3.83
2019-02-28T05:19:58.522Z,3.40
2019-02-28T05:23:02.983Z,3.90
2019-02-28T05:26:08.666Z,3.47
2019-02-28T05:29:13.122Z,3.57
2019-02-28T05:32:17.427Z,3.37
2019-02-28T05:35:25.249Z,4.10
2019-02-28T05:38:30.921Z,3.37
2019-02-28T05:41:36.661Z,3.73
2019-02-28T05:44:41.383Z,3.60
2019-02-28T05:47:47.144Z,4.50
2019-02-28T05:50:53.307Z,3.70
2019-02-28T05:53:58.402Z,2.90
2019-02-28T05:57:04.644Z,3.60
2019-02-28T06:00:10.175Z,3.77
2019-02-28T06:03:14.936Z,3.80
2019-02-28T06:06:20.175Z,3.30
2019-02-28T06:09:26.328Z,4.20
2019-02-28T06:12:31.037Z,5.20
2019-02-28T06:15:37.155Z,5.67
2019-02-28T06:18:41.565Z,5.03
2019-02-28T06:21:45.846Z,5.17
2019-02-28T06:24:50.153Z,3.63
2019-02-28T06:27:54.845Z,3.87
2019-02-28T06:31:00.266Z,4.90
2019-02-28T06:34:05.673Z,4.87
2019-02-28T06:37:10.971Z,4.33
2019-02-28T06:40:15.344Z,4.17
2019-02-28T06:43:19.777Z,4.63
2019-02-28T06:46:24.164Z,4.07
2019-02-28T06:49:28.494Z,7.63
2019-02-28T06:52:32.897Z,6.33
2019-02-28T06:55:47.442Z,5.10
2019-02-28T06:58:52.850Z,5.67
2019-02-28T07:01:57.790Z,6.47
2019-02-28T07:05:02.176Z,7.90
2019-02-28T07:08:06.876Z,5.70
2019-02-28T07:11:11.179Z,5.93
2019-02-28T07:14:15.500Z,7.93
2019-02-28T07:17:19.858Z,7.03
2019-02-28T07:20:24.615Z,7.43
2019-02-28T07:23:29.995Z,6.40
2019-02-28T07:26:35.235Z,7.67
2019-02-28T07:29:42.663Z,7.63
2019-02-28T07:32:46.116Z,6.93
2019-02-28T07:35:50.535Z,7.83
2019-02-28T07:38:54.951Z,8.93
2019-02-28T07:42:02.230Z,8.33
2019-02-28T07:45:05.637Z,10.90
2019-02-28T07:48:10.013Z,9.80
2019-02-28T07:51:14.442Z,11.10
2019-02-28T07:54:20.437Z,9.13
2019-02-28T07:57:25.161Z,11.83
2019-02-28T08:00:29.844Z,10.70
2019-02-28T08:03:34.574Z,10.17
2019-02-28T08:06:40.505Z,10.37
2019-02-28T08:10:03.989Z,11.60
2019-02-28T08:13:10.295Z,11.97
2019-02-28T08:16:15.038Z,10.37
2019-02-28T08:19:19.719Z,11.57
2019-02-28T08:22:24.740Z,11.67
2019-02-28T08:25:29.271Z,11.13
2019-02-28T08:28:36.774Z,13.40
2019-02-28T08:31:39.752Z,11.20
2019-02-28T08:34:44.096Z,11.30
2019-02-28T08:37:55.773Z,12.90
2019-02-28T08:40:54.755Z,11.10
2019-02-28T08:43:59.463Z,9.60
2019-02-28T08:47:05.316Z,12.77
2019-02-28T08:50:19.122Z,12.13
2019-02-28T08:53:22.595Z,10.83
2019-02-28T08:56:27.196Z,10.60
2019-02-28T08:59:31.624Z,12.40
2019-02-28T09:02:36.029Z,13.30
2019-02-28T09:05:40.370Z,10.37
2019-02-28T09:08:44.697Z,11.37
2019-02-28T09:11:49.081Z,12.10
2019-02-28T09:14:55.418Z,12.43
2019-02-28T09:17:59.827Z,13.13
2019-02-28T09:21:04.545Z,11.33
2019-02-28T09:24:09.404Z,12.60
2019-02-28T09:27:15.590Z,10.80
2019-02-28T09:30:26.451Z,11.27
2019-02-28T09:33:31.952Z,10.60
2019-02-28T09:36:36.400Z,10.93
2019-02-28T09:39:41.261Z,11.80
2019-02-28T09:42:47.888Z,13.27
2019-02-28T09:45:52.098Z,11.60
2019-02-28T09:49:05.695Z,11.07
2019-02-28T09:52:10.317Z,10.53
2019-02-28T09:55:16.424Z,10.60
2019-02-28T09:58:20.834Z,13.00
2019-02-28T10:01:25.239Z,11.23
2019-02-28T10:04:30.476Z,11.37
2019-02-28T10:07:35.617Z,11.27
2019-02-28T10:10:40.850Z,11.13
2019-02-28T10:13:45.298Z,12.93
2019-02-28T10:16:52.553Z,10.73
2019-02-28T10:19:55.798Z,11.23
2019-02-28T10:23:00.194Z,11.10
2019-02-28T10:26:04.700Z,13.47
2019-02-28T10:29:08.997Z,13.83
2019-02-28T10:32:13.411Z,13.23
2019-02-28T10:35:18.589Z,13.43
2019-02-28T10:38:22.954Z,12.30
2019-02-28T10:41:27.965Z,12.93
2019-02-28T10:44:33.389Z,13.47
2019-02-28T10:47:37.711Z,11.07
2019-02-28T10:50:43.762Z,11.30
2019-02-28T10:53:48.133Z,11.20
2019-02-28T10:56:52.482Z,10.93
2019-02-28T10:59:58.240Z,11.90
2019-02-28T11:03:03.313Z,13.40
2019-02-28T11:06:07.992Z,12.93
2019-02-28T11:09:21.406Z,11.30
2019-02-28T11:12:26.018Z,12.43
2019-02-28T11:15:31.859Z,11.47
2019-02-28T11:18:37.339Z,11.60
2019-02-28T11:21:41.910Z,12.03
2019-02-28T11:24:48.137Z,11.93
2019-02-28T11:27:53.755Z,12.20
2019-02-28T11:30:58.916Z,11.37
2019-02-28T11:34:03.321Z,9.93
2019-02-28T11:37:10.051Z,11.07
2019-02-28T11:40:14.695Z,10.80
2019-02-28T11:43:19.210Z,10.13
2019-02-28T11:46:23.883Z,13.17
2019-02-28T11:49:29.370Z,11.93
2019-02-28T11:52:33.800Z,10.57
2019-02-28T11:55:38.270Z,12.17
2019-02-28T11:58:42.688Z,12.43
2019-02-28T12:01:48.372Z,12.13
2019-02-28T12:04:52.957Z,11.73
2019-02-28T12:07:57.348Z,10.97
2019-02-28T12:11:02.856Z,10.93
2019-02-28T12:14:07.325Z,11.27
2019-02-28T12:17:11.832Z,13.50
2019-02-28T12:20:16.194Z,14.20
2019-02-28T12:23:23.511Z,13.17
2019-02-28T12:26:26.774Z,12.43
2019-02-28T12:29:31.140Z,13.43
2019-02-28T12:32:35.491Z,12.37
2019-02-28T12:35:40.728Z,13.00
2019-02-28T12:38:46.356Z,13.27
2019-02-28T12:41:50.758Z,14.13
2019-02-28T12:44:55.082Z,13.57
2019-02-28T12:47:59.573Z,14.57
2019-02-28T12:51:05.404Z,12.40
2019-02-28T12:54:13.713Z,14.40
2019-02-28T12:57:19.283Z,14.03
2019-02-28T13:00:36.051Z,12.93
2019-02-28T13:03:40.476Z,12.57
2019-02-28T13:06:45.517Z,11.53
2019-02-28T13:09:51.527Z,12.10
2019-02-28T13:13:05.773Z,13.67
2019-02-28T13:16:02.798Z,13.37
2019-02-28T13:19:07.758Z,14.77
2019-02-28T13:22:13.585Z,14.07
2019-02-28T13:25:19.342Z,16.20
2019-02-28T13:28:24.132Z,14.17
2019-02-28T13:31:28.450Z,14.73
2019-02-28T13:34:32.780Z,13.30
2019-02-28T13:37:37.459Z,14.17
2019-02-28T13:40:44.895Z,13.57
2019-02-28T13:43:49.430Z,14.10
2019-02-28T13:46:53.795Z,15.33
2019-02-28T13:49:58.253Z,11.30
2019-02-28T13:53:16.610Z,11.77
2019-02-28T13:56:08.687Z,11.87
2019-02-28T13:59:13.123Z,11.90
2019-02-28T14:02:17.623Z,12.30
2019-02-28T14:05:22.447Z,13.83
2019-02-28T14:08:26.774Z,13.73
2019-02-28T14:11:31.261Z,15.53
2019-02-28T14:14:38.941Z,13.40
2019-02-28T14:17:41.736Z,12.90
2019-02-28T14:20:46.111Z,14.13
2019-02-28T14:23:52.465Z,15.17
2019-02-28T14:26:58.553Z,12.63
2019-02-28T14:30:06.585Z,11.90
2019-02-28T14:33:16.124Z,13.13
2019-02-28T14:36:19.557Z,13.73
2019-02-28T14:39:24.324Z,13.33
2019-02-28T14:42:28.722Z,13.00
2019-02-28T14:45:34.328Z,12.33
2019-02-28T14:48:39.874Z,13.40
2019-02-28T14:51:44.672Z,11.10
2019-02-28T14:54:49.376Z,14.27
2019-02-28T14:57:55.183Z,14.20
2019-02-28T15:00:59.650Z,12.00
2019-02-28T15:04:04.085Z,13.67
2019-02-28T15:07:08.409Z,13.40
2019-02-28T15:10:15.290Z,14.63
2019-02-28T15:13:20.478Z,13.53
2019-02-28T15:16:26.544Z,14.03
2019-02-28T15:19:30.901Z,14.03
2019-02-28T15:22:35.432Z,14.23
2019-02-28T15:25:40.176Z,15.27
2019-02-28T15:28:45.575Z,13.00
2019-02-28T15:31:50.969Z,13.70
2019-02-28T15:34:55.317Z,13.53
2019-02-28T15:37:59.638Z,16.73
2019-02-28T15:41:04.408Z,17.23
2019-02-28T15:44:09.115Z,15.23
2019-02-28T15:47:14.592Z,15.80
2019-02-28T15:50:19.464Z,15.43
2019-02-28T15:53:24.928Z,15.10
2019-02-28T15:56:29.601Z,14.20
2019-02-28T15:59:34.529Z,14.30
2019-02-28T16:02:42.068Z,13.13
2019-02-28T16:05:45.358Z,12.70
2019-02-28T16:08:49.693Z,14.00
2019-02-28T16:11:54.464Z,14.77
2019-02-28T16:15:01.067Z,15.23
2019-02-28T16:18:08.645Z,15.47
2019-02-28T16:21:13.211Z,14.20
2019-02-28T16:24:17.556Z,15.40
2019-02-28T16:27:22.289Z,20.83
2019-02-28T16:30:28.786Z,24.30
2019-02-28T16:33:33.534Z,19.40
2019-02-28T16:36:37.911Z,21.87
2019-02-28T16:39:42.260Z,18.87
2019-02-28T16:42:47.251Z,16.80
2019-02-28T16:45:51.699Z,17.50
2019-02-28T16:48:56.376Z,16.80
2019-02-28T16:52:02.535Z,14.40
2019-02-28T16:55:08.611Z,15.23
2019-02-28T16:58:12.959Z,15.33
2019-02-28T17:01:20.587Z,13.87
2019-02-28T17:04:26.622Z,13.83
2019-02-28T17:07:31.027Z,15.37
2019-02-28T17:10:40.008Z,15.27
2019-02-28T17:13:56.422Z,15.53
2019-02-28T17:17:11.827Z,13.57
2019-02-28T17:20:16.496Z,13.57
2019-02-28T17:23:20.822Z,13.50
2019-02-28T17:27:02.396Z,16.13
2019-02-28T17:30:28.096Z,14.47
2019-02-28T17:33:32.578Z,12.90
2019-02-28T17:36:36.939Z,15.43
2019-02-28T17:39:41.366Z,16.93
2019-02-28T17:42:46.408Z,20.57
2019-02-28T17:45:51.839Z,21.00
2019-02-28T17:49:30.387Z,21.43
2019-02-28T17:53:00.468Z,17.50
2019-02-28T17:56:33.219Z,20.10
2019-02-28T18:00:24.392Z,18.50
2019-02-28T18:04:20.885Z,15.93
2019-02-28T18:07:50.707Z,16.30
2019-02-28T18:11:34.055Z,18.73
2019-02-28T18:15:01.177Z,17.00
2019-02-28T18:18:51.526Z,15.20
2019-02-28T18:22:40.115Z,14.80
2019-02-28T18:26:25.729Z,16.30
2019-02-28T18:30:05.352Z,15.40
2019-02-28T18:33:10.192Z,15.87
2019-02-28T18:36:17.898Z,16.57
2019-02-28T18:39:23.197Z,17.33
2019-02-28T18:42:27.601Z,17.77
2019-02-28T18:45:33.860Z,16.73
2019-02-28T18:48:39.504Z,16.03
2019-02-28T18:51:45.638Z,14.90
2019-02-28T18:54:50.844Z,16.67
2019-02-28T18:57:57.060Z,15.03
2019-02-28T19:01:01.389Z,14.90
2019-02-28T19:04:06.161Z,16.30
2019-02-28T19:07:10.514Z,17.10
2019-02-28T19:10:15.437Z,17.17
2019-02-28T19:13:20.183Z,21.07
2019-02-28T19:16:26.031Z,27.13
2019-02-28T19:19:30.456Z,21.43
2019-02-28T19:22:35.658Z,26.87
2019-02-28T19:25:41.792Z,21.30
2019-02-28T19:28:46.743Z,25.17
2019-02-28T19:31:51.106Z,19.80
2019-02-28T19:34:55.428Z,18.40
2019-02-28T19:38:00.919Z,17.10
2019-02-28T19:41:05.656Z,17.40
2019-02-28T19:44:10.065Z,16.20
2019-02-28T19:47:14.679Z,17.10
2019-02-28T19:50:19.068Z,17.27
2019-02-28T19:53:23.779Z,18.50
2019-02-28T19:56:28.463Z,19.30
2019-02-28T19:59:33.207Z,16.37
2019-02-28T20:02:38.404Z,17.17
2019-02-28T20:05:42.749Z,16.90
2019-02-28T20:08:47.657Z,15.80
2019-02-28T20:11:52.455Z,17.33
2019-02-28T20:14:56.868Z,16.47
2019-02-28T20:18:02.593Z,18.23
2019-02-28T20:21:07.370Z,18.20
2019-02-28T20:24:11.786Z,19.13
2019-02-28T20:27:16.152Z,18.77
2019-02-28T20:30:22.547Z,17.10
2019-02-28T20:33:27.370Z,19.30
2019-02-28T20:36:34.204Z,21.13
2019-02-28T20:39:40.931Z,20.43
2019-02-28T20:42:45.285Z,21.43
2019-02-28T20:45:51.735Z,24.63
2019-02-28T20:48:56.078Z,19.23
2019-02-28T20:52:03.162Z,24.17
2019-02-28T20:55:08.227Z,19.43
2019-02-28T20:58:13.081Z,22.30
2019-02-28T21:01:17.869Z,20.43
2019-02-28T21:04:22.222Z,24.47
2019-02-28T21:07:26.552Z,25.30
2019-02-28T21:10:30.884Z,22.37
2019-02-28T21:13:35.323Z,25.97
2019-02-28T21:16:40.767Z,23.73
2019-02-28T21:19:46.315Z,23.40
2019-02-28T21:22:50.970Z,22.77
2019-02-28T21:25:57.221Z,19.90
2019-02-28T21:29:03.343Z,20.27
2019-02-28T21:32:09.157Z,20.40
2019-02-28T21:35:15.458Z,18.33
2019-02-28T21:38:19.798Z,17.73
2019-02-28T21:41:24.474Z,19.53
2019-02-28T21:44:30.665Z,17.77
2019-02-28T21:47:34.996Z,19.70
2019-02-28T21:50:39.612Z,20.83
2019-02-28T21:53:44.253Z,17.47
2019-02-28T21:56:48.590Z,19.80
2019-02-28T21:59:53.309Z,22.37
2019-02-28T22:02:57.604Z,22.30
2019-02-28T22:06:03.486Z,21.77
2019-02-28T22:09:09.477Z,20.97
2019-02-28T22:12:13.798Z,23.37
2019-02-28T22:15:19.143Z,19.67
2019-02-28T22:18:23.526Z,22.67
2019-02-28T22:21:27.921Z,19.53
2019-02-28T22:24:32.262Z,19.43
2019-02-28T22:27:36.615Z,18.67
2019-02-28T22:31:00.056Z,21.30
2019-02-28T22:34:22.180Z,19.03
2019-02-28T22:37:26.558Z,19.10
2019-02-28T22:40:30.905Z,22.43
2019-02-28T22:43:35.238Z,20.80
2019-02-28T22:46:43.808Z,19.17
2019-02-28T22:49:48.169Z,19.80
2019-02-28T22:52:54.997Z,20.20
2019-02-28T22:55:59.693Z,19.80
2019-02-28T22:59:04.116Z,18.87
2019-02-28T23:02:08.627Z,20.80
2019-02-28T23:05:13.086Z,19.00
2019-02-28T23:08:18.777Z,21.17
2019-02-28T23:11:24.493Z,16.57
2019-02-28T23:14:29.252Z,19.87
2019-02-28T23:17:34.128Z,20.77
2019-02-28T23:20:38.742Z,24.73
2019-02-28T23:23:43.105Z,24.07
2019-02-28T23:27:12.809Z,24.13
2019-02-28T23:30:28.388Z,25.23
2019-02-28T23:33:32.764Z,24.83
2019-02-28T23:36:39.483Z,25.33
2019-02-28T23:39:44.784Z,23.17
2019-02-28T23:42:50.619Z,24.03
2019-02-28T23:45:55.453Z,25.10
2019-02-28T23:49:00.274Z,24.00
2019-02-28T23:52:04.689Z,23.93
2019-02-28T23:55:09.642Z,22.20
2019-02-28T23:58:14.651Z,22.23
